createdAt,value
2024-02-10T00:00:28.807Z,13.73
2024-02-10T00:02:59.957Z,13.82
2024-02-10T00:05:36.916Z,13.65
2024-02-10T00:08:04.642Z,15.52
2024-02-10T00:10:32.188Z,15.95
2024-02-10T00:13:01.651Z,14.80
2024-02-10T00:15:29.458Z,16.00
2024-02-10T00:17:57.415Z,14.52
2024-02-10T00:20:27.640Z,14.20
2024-02-10T00:22:55.644Z,14.35
2024-02-10T00:25:26.257Z,14.55
2024-02-10T00:27:59.958Z,13.85
2024-02-10T00:30:31.201Z,14.65
2024-02-10T00:33:03.318Z,12.85
2024-02-10T00:35:40.482Z,14.45
2024-02-10T00:38:07.717Z,14.45
2024-02-10T00:40:35.264Z,15.43
2024-02-10T00:43:05.908Z,13.10
2024-02-10T00:45:33.458Z,12.45
2024-02-10T00:48:01.853Z,14.50
2024-02-10T00:50:29.287Z,14.25
2024-02-10T00:52:56.676Z,12.98
2024-02-10T00:55:27.174Z,14.40
2024-02-10T00:57:54.668Z,15.05
2024-02-10T01:00:23.526Z,14.60
2024-02-10T01:02:52.382Z,15.13
2024-02-10T01:05:20.149Z,16.60
2024-02-10T01:07:49.296Z,15.00
2024-02-10T01:10:17.320Z,14.40
2024-02-10T01:12:45.049Z,13.15
2024-02-10T01:15:14.787Z,14.52
2024-02-10T01:17:48.208Z,15.38
2024-02-10T01:20:18.661Z,13.55
2024-02-10T01:22:46.841Z,12.75
2024-02-10T01:25:14.567Z,15.30
2024-02-10T01:27:45.070Z,15.23
2024-02-10T01:30:14.410Z,13.30
2024-02-10T01:32:44.040Z,16.38
2024-02-10T01:35:12.325Z,14.63
2024-02-10T01:37:42.579Z,16.13
2024-02-10T01:40:12.791Z,15.77
2024-02-10T01:42:43.071Z,14.70
2024-02-10T01:45:15.297Z,15.25
2024-02-10T01:47:47.199Z,15.60
2024-02-10T01:50:16.020Z,15.25
2024-02-10T01:52:49.724Z,13.82
2024-02-10T01:55:24.566Z,15.73
2024-02-10T01:58:04.427Z,16.23
2024-02-10T02:03:47.749Z,15.52
2024-02-10T02:15:45.338Z,15.77
2024-02-10T02:21:37.133Z,16.67
2024-02-10T02:24:19.129Z,14.70
2024-02-10T02:58:45.276Z,15.73
2024-02-10T03:03:54.495Z,15.07
2024-02-10T03:06:22.409Z,14.50
2024-02-10T03:08:49.837Z,16.42
2024-02-10T03:11:20.914Z,17.88
2024-02-10T03:13:49.170Z,15.30
2024-02-10T03:16:23.956Z,15.63
2024-02-10T03:18:51.366Z,16.48
2024-02-10T03:21:19.385Z,16.80
2024-02-10T03:23:46.904Z,15.40
2024-02-10T03:26:14.946Z,16.15
2024-02-10T03:28:42.518Z,15.57
2024-02-10T03:31:11.188Z,14.38
2024-02-10T03:33:38.661Z,13.32
2024-02-10T03:36:06.589Z,16.58
2024-02-10T03:38:33.950Z,16.20
2024-02-10T03:41:01.470Z,15.48
2024-02-10T03:43:29.146Z,15.73
2024-02-10T03:45:56.516Z,16.27
2024-02-10T03:48:33.805Z,15.98
2024-02-10T03:51:01.291Z,16.73
2024-02-10T03:53:28.872Z,18.00
2024-02-10T03:55:58.264Z,16.70
2024-02-10T03:58:27.184Z,16.05
2024-02-10T04:00:55.321Z,16.63
2024-02-10T04:08:12.312Z,17.02
2024-02-10T04:13:34.338Z,17.02
2024-02-10T04:16:04.124Z,19.30
2024-02-10T04:21:18.078Z,18.35
2024-02-10T04:23:53.737Z,19.98
2024-02-10T04:26:31.636Z,19.15
2024-02-10T04:34:33.215Z,18.55
2024-02-10T04:37:01.611Z,17.45
2024-02-10T04:39:30.811Z,16.92
2024-02-10T04:41:59.503Z,18.63
2024-02-10T04:44:32.817Z,19.05
2024-02-10T04:49:45.301Z,19.15
2024-02-10T05:00:30.850Z,19.17
2024-02-10T05:05:46.901Z,18.95
2024-02-10T05:08:15.012Z,16.50
2024-02-10T05:16:12.640Z,17.00
2024-02-10T05:27:04.300Z,19.63
2024-02-10T05:29:46.562Z,20.23
2024-02-10T05:32:16.862Z,18.90
2024-02-10T05:34:47.815Z,20.95
2024-02-10T05:37:20.963Z,22.15
2024-02-10T05:45:14.854Z,20.33
2024-02-10T06:03:58.141Z,20.92
2024-02-10T06:06:29.313Z,20.73
2024-02-10T06:09:03.093Z,21.42
2024-02-10T06:14:20.993Z,21.63
2024-02-10T06:16:56.178Z,19.70
2024-02-10T06:19:26.667Z,20.55
2024-02-10T06:21:54.392Z,22.13
2024-02-10T06:24:31.452Z,20.52
2024-02-10T06:29:40.057Z,22.92
2024-02-10T06:32:07.674Z,21.08
2024-02-10T06:34:36.844Z,18.60
2024-02-10T06:37:09.397Z,20.52
2024-02-10T06:39:40.147Z,21.02
2024-02-10T06:42:10.860Z,19.90
2024-02-10T06:44:44.392Z,21.30
2024-02-10T06:47:16.719Z,19.85
2024-02-10T06:49:49.599Z,21.67
2024-02-10T06:52:17.573Z,20.63
2024-02-10T06:54:46.780Z,20.60
2024-02-10T06:57:27.238Z,20.00
2024-02-10T06:59:58.381Z,20.08
2024-02-10T07:02:31.330Z,19.67
2024-02-10T07:04:59.964Z,19.45
2024-02-10T07:07:28.292Z,19.58
2024-02-10T07:10:00.970Z,21.50
2024-02-10T07:12:35.098Z,20.40
2024-02-10T07:15:02.981Z,22.13
2024-02-10T07:17:37.371Z,20.85
2024-02-10T07:20:06.047Z,20.90
2024-02-10T07:22:35.990Z,21.52
2024-02-10T07:25:15.351Z,20.35
2024-02-10T07:27:46.588Z,22.33
2024-02-10T07:30:15.855Z,20.75
2024-02-10T07:32:50.339Z,22.85
2024-02-10T07:35:20.061Z,22.83
2024-02-10T07:37:50.421Z,20.75
2024-02-10T07:40:19.461Z,19.88
2024-02-10T07:42:47.914Z,21.42
2024-02-10T07:45:19.176Z,20.60
2024-02-10T07:47:48.437Z,19.02
2024-02-10T07:50:15.906Z,21.90
2024-02-10T07:52:46.764Z,22.38
2024-02-10T07:55:40.634Z,22.73
2024-02-10T07:58:11.296Z,25.83
2024-02-10T08:00:43.236Z,25.58
2024-02-10T08:03:14.633Z,20.58
2024-02-10T08:05:43.945Z,20.70
2024-02-10T08:08:12.112Z,19.52
2024-02-10T08:10:40.120Z,21.63
2024-02-10T08:13:07.935Z,21.58
2024-02-10T08:15:35.611Z,21.05
2024-02-10T08:18:07.300Z,23.92
2024-02-10T08:20:36.036Z,16.67
2024-02-10T08:23:04.130Z,19.52
2024-02-10T08:25:33.052Z,21.30
2024-02-10T08:28:02.594Z,24.17
2024-02-10T08:30:30.742Z,20.75
2024-02-10T08:33:03.160Z,21.95
2024-02-10T08:35:32.356Z,22.23
2024-02-10T08:37:59.947Z,24.30
2024-02-10T08:40:27.284Z,25.67
2024-02-10T08:42:55.561Z,26.83
2024-02-10T08:45:23.124Z,25.40
2024-02-10T08:47:51.139Z,23.75
2024-02-10T08:50:19.934Z,20.15
2024-02-10T08:52:53.077Z,22.13
2024-02-10T08:55:21.657Z,25.08
2024-02-10T08:57:52.563Z,24.48
2024-02-10T09:00:23.341Z,24.95
2024-02-10T09:02:52.384Z,26.85
2024-02-10T09:05:20.046Z,24.08
2024-02-10T09:43:42.133Z,22.70
2024-02-10T09:46:13.616Z,21.27
2024-02-10T09:48:55.041Z,23.27
2024-02-10T09:51:30.951Z,23.42
2024-02-10T09:54:01.598Z,23.45
2024-02-10T09:56:36.528Z,24.88
2024-02-10T09:59:08.673Z,23.92
2024-02-10T10:01:39.306Z,25.45
2024-02-10T10:04:13.744Z,26.30
2024-02-10T10:06:48.922Z,28.00
2024-02-10T10:09:20.185Z,27.23
2024-02-10T10:11:52.327Z,27.88
2024-02-10T10:14:22.347Z,27.95
2024-02-10T10:17:02.040Z,25.55
2024-02-10T10:19:32.068Z,26.38
2024-02-10T10:22:04.628Z,27.85
2024-02-10T10:24:59.984Z,27.30
2024-02-10T10:27:27.656Z,25.35
2024-02-10T10:29:58.856Z,26.80
2024-02-10T10:32:33.011Z,27.90
2024-02-10T10:35:02.952Z,31.92
2024-02-10T10:37:32.773Z,30.80
2024-02-10T10:40:13.086Z,28.92
2024-02-10T10:42:44.124Z,29.40
2024-02-10T10:45:16.941Z,30.10
2024-02-10T10:47:47.264Z,29.23
2024-02-10T10:50:17.895Z,23.10
2024-02-10T10:52:49.136Z,20.52
2024-02-10T10:55:19.625Z,24.33
2024-02-10T10:57:51.591Z,23.00
2024-02-10T11:00:22.502Z,24.05
2024-02-10T11:03:00.751Z,23.25
2024-02-10T11:05:28.417Z,20.92
2024-02-10T11:08:03.309Z,23.73
2024-02-10T11:31:00.943Z,21.15
2024-02-10T11:36:32.334Z,20.63
2024-02-10T11:39:01.206Z,19.95
2024-02-10T11:41:33.483Z,22.02
2024-02-10T11:44:14.517Z,22.15
2024-02-10T11:46:50.117Z,23.13
2024-02-10T11:49:27.669Z,21.45
2024-02-10T11:52:05.377Z,19.65
2024-02-10T11:54:53.547Z,19.98
2024-02-10T11:57:25.106Z,21.60
2024-02-10T11:59:57.645Z,20.17
2024-02-10T12:02:34.024Z,20.88
2024-02-10T12:05:06.197Z,20.98
2024-02-10T12:07:48.448Z,20.55
2024-02-10T12:10:21.716Z,19.38
2024-02-10T12:13:06.109Z,18.63
2024-02-10T13:05:02.689Z,17.95
2024-02-10T13:20:52.143Z,18.42
2024-02-10T13:23:20.957Z,17.30
2024-02-10T13:25:53.421Z,17.55
2024-02-10T13:28:26.174Z,20.00
2024-02-10T13:30:54.635Z,18.10
2024-02-10T13:33:25.346Z,19.15
2024-02-10T13:35:56.268Z,21.17
2024-02-10T13:38:45.275Z,19.13
2024-02-10T13:41:31.176Z,19.73
2024-02-10T13:44:17.271Z,19.25
2024-02-10T13:47:10.006Z,18.70
2024-02-10T13:50:00.866Z,18.67
2024-02-10T13:52:54.455Z,18.65
2024-02-10T13:55:55.545Z,17.83
2024-02-10T14:01:54.916Z,18.50
2024-02-10T14:04:41.375Z,17.65
2024-02-10T14:07:36.218Z,16.50
2024-02-10T14:10:12.754Z,19.63
2024-02-10T14:12:51.821Z,18.05
2024-02-10T14:15:28.801Z,19.05
2024-02-10T14:18:02.611Z,19.50
2024-02-10T14:20:39.325Z,20.33
2024-02-10T14:23:13.604Z,20.30
2024-02-10T14:25:48.185Z,18.92
2024-02-10T14:31:17.848Z,18.35
2024-02-10T14:34:03.196Z,20.55
2024-02-10T14:36:39.261Z,22.00
2024-02-10T14:39:10.857Z,19.67
2024-02-10T14:41:53.095Z,20.38
2024-02-10T14:47:58.629Z,18.20
2024-02-10T14:50:30.682Z,19.60
2024-02-10T14:58:40.773Z,19.83
2024-02-10T15:07:00.342Z,20.10
2024-02-10T15:12:28.747Z,20.90
2024-02-10T15:15:06.281Z,19.33
2024-02-10T15:18:04.278Z,21.08
2024-02-10T15:20:51.076Z,21.67
2024-02-10T15:23:19.517Z,20.92
2024-02-10T15:25:49.509Z,20.52
2024-02-10T15:28:36.106Z,22.98
2024-02-10T15:31:29.876Z,18.63
2024-02-10T15:34:07.841Z,19.95
2024-02-10T15:37:00.764Z,21.05
2024-02-10T15:39:38.666Z,17.40
2024-02-10T15:42:33.222Z,18.25
2024-02-10T15:45:38.618Z,20.15
2024-02-10T15:48:18.846Z,17.58
2024-02-10T15:50:47.379Z,21.50
2024-02-10T15:53:54.678Z,22.38
2024-02-10T15:56:29.501Z,17.80
2024-02-10T15:59:08.041Z,20.02
2024-02-10T16:01:44.416Z,19.08
2024-02-10T16:04:15.276Z,21.27
2024-02-10T16:06:48.403Z,20.88
2024-02-10T16:09:18.791Z,22.23
2024-02-10T16:11:52.304Z,21.45
2024-02-10T16:14:29.438Z,22.85
2024-02-10T16:17:02.398Z,21.83
2024-02-10T16:19:30.974Z,22.00
2024-02-10T16:22:00.884Z,19.63
2024-02-10T16:24:31.164Z,21.38
2024-02-10T16:27:02.082Z,26.83
2024-02-10T16:29:29.516Z,20.35
2024-02-10T16:31:59.943Z,20.30
2024-02-10T16:34:30.160Z,23.33
2024-02-10T16:37:00.062Z,18.75
2024-02-10T16:39:27.415Z,23.63
2024-02-10T16:41:58.866Z,24.02
2024-02-10T16:44:29.252Z,22.60
2024-02-10T16:47:01.159Z,24.15
2024-02-10T16:49:52.000Z,23.02
2024-02-10T16:52:25.297Z,23.52
2024-02-10T16:54:56.799Z,21.85
2024-02-10T16:57:49.185Z,24.83
2024-02-10T17:00:28.312Z,22.70
2024-02-10T17:03:02.655Z,24.95
2024-02-10T17:05:34.937Z,23.08
2024-02-10T17:08:04.075Z,19.40
2024-02-10T17:10:36.466Z,24.15
2024-02-10T17:13:08.471Z,21.35
2024-02-10T17:15:44.392Z,16.25
2024-02-10T17:18:15.794Z,23.25
2024-02-10T17:21:02.373Z,18.27
2024-02-10T17:23:35.372Z,26.58
2024-02-10T17:26:08.532Z,23.85
2024-02-10T17:28:38.937Z,16.98
2024-02-10T17:31:15.652Z,22.00
2024-02-10T17:33:45.858Z,22.50
2024-02-10T17:36:23.456Z,22.23
2024-02-10T17:39:03.932Z,22.85
2024-02-10T17:41:33.603Z,23.23
2024-02-10T17:44:01.898Z,24.10
2024-02-10T17:46:31.693Z,22.52
2024-02-10T17:49:02.209Z,24.58
2024-02-10T17:51:30.679Z,25.20
2024-02-10T17:54:09.881Z,23.17
2024-02-10T17:56:38.381Z,21.00
2024-02-10T17:59:06.438Z,19.50
2024-02-10T18:01:34.338Z,22.55
2024-02-10T18:04:02.306Z,16.73
2024-02-10T18:06:32.323Z,23.80
2024-02-10T18:09:05.062Z,23.75
2024-02-10T18:15:06.561Z,22.27
2024-02-10T18:17:34.084Z,18.63
2024-02-10T18:20:03.283Z,23.17
2024-02-10T18:22:34.465Z,23.05
2024-02-10T18:25:05.356Z,21.25
2024-02-10T18:27:34.002Z,20.70
2024-02-10T18:30:04.904Z,23.70
2024-02-10T18:32:34.034Z,21.95
2024-02-10T18:35:03.151Z,23.25
2024-02-10T18:37:52.230Z,21.13
2024-02-10T18:40:20.490Z,24.75
2024-02-10T18:42:49.151Z,23.67
2024-02-10T18:45:45.791Z,23.63
2024-02-10T18:48:21.679Z,19.05
2024-02-10T18:50:55.004Z,23.90
2024-02-10T18:53:22.900Z,22.98
2024-02-10T18:55:51.743Z,24.90
2024-02-10T18:58:19.327Z,23.58
2024-02-10T19:00:50.712Z,25.52
2024-02-10T19:03:18.324Z,24.67
2024-02-10T19:05:48.230Z,23.35
2024-02-10T19:08:16.811Z,23.08
2024-02-10T19:10:45.453Z,22.02
2024-02-10T19:13:16.674Z,23.83
2024-02-10T19:15:44.307Z,24.80
2024-02-10T19:18:15.700Z,25.63
2024-02-10T19:20:48.561Z,27.23
2024-02-10T19:23:16.491Z,25.23
2024-02-10T19:25:53.249Z,23.33
2024-02-10T19:28:20.739Z,23.25
2024-02-10T19:30:50.937Z,25.60
2024-02-10T19:33:20.852Z,22.60
2024-02-10T19:35:57.845Z,25.77
2024-02-10T19:38:30.343Z,24.95
2024-02-10T19:41:04.247Z,25.88
2024-02-10T19:43:32.039Z,26.20
2024-02-10T19:46:01.786Z,25.52
2024-02-10T19:48:32.789Z,26.00
2024-02-10T19:51:07.705Z,27.65
2024-02-10T19:53:36.693Z,27.33
2024-02-10T19:56:05.852Z,26.80
2024-02-10T19:58:35.863Z,27.20
2024-02-10T20:01:04.566Z,36.20
2024-02-10T20:03:32.509Z,26.98
2024-02-10T20:06:06.511Z,28.10
2024-02-10T20:08:36.749Z,28.92
2024-02-10T20:11:05.401Z,28.02
2024-02-10T20:13:32.891Z,26.42
2024-02-10T20:18:49.254Z,23.08
2024-02-10T20:21:17.821Z,23.73
2024-02-10T20:23:45.978Z,23.20
2024-02-10T20:26:14.544Z,24.15
2024-02-10T20:28:43.477Z,27.60
2024-02-10T20:31:18.441Z,26.25
2024-02-10T20:33:53.846Z,22.95
2024-02-10T20:36:28.552Z,24.73
2024-02-10T20:38:58.029Z,26.38
2024-02-10T20:41:25.611Z,23.67
2024-02-10T20:43:52.930Z,20.17
2024-02-10T20:46:24.948Z,25.05
2024-02-10T20:48:54.087Z,26.67
2024-02-10T20:51:21.333Z,25.38
2024-02-10T20:53:48.882Z,27.85
2024-02-10T20:56:16.943Z,24.70
2024-02-10T20:58:45.450Z,32.03
2024-02-10T21:01:12.946Z,25.52
2024-02-10T21:03:40.672Z,26.50
2024-02-10T21:06:08.578Z,24.52
2024-02-10T21:08:39.006Z,24.02
2024-02-10T21:11:07.304Z,25.58
2024-02-10T21:13:35.048Z,26.17
2024-02-10T21:16:04.462Z,24.33
2024-02-10T21:18:34.427Z,25.35
2024-02-10T21:21:02.069Z,22.65
2024-02-10T21:23:32.044Z,23.50
2024-02-10T21:25:59.457Z,24.27
2024-02-10T21:28:28.628Z,25.13
2024-02-10T21:31:06.316Z,26.77
2024-02-10T21:36:03.757Z,24.40
2024-02-10T21:38:31.226Z,27.15
2024-02-10T21:40:58.685Z,28.83
2024-02-10T21:43:26.546Z,25.35
2024-02-10T21:45:56.223Z,25.33
2024-02-10T21:48:23.822Z,26.20
2024-02-10T21:50:51.149Z,27.35
2024-02-10T21:53:18.981Z,25.27
2024-02-10T21:55:46.983Z,26.65
2024-02-10T21:58:15.490Z,26.38
2024-02-10T22:00:42.916Z,26.88
2024-02-10T22:03:12.833Z,28.02
2024-02-10T22:05:42.502Z,27.33
2024-02-10T22:08:10.000Z,29.45
2024-02-10T22:10:38.508Z,27.67
2024-02-10T22:13:08.079Z,26.30
2024-02-10T22:15:43.975Z,27.77
2024-02-10T22:18:14.959Z,26.38
2024-02-10T22:20:43.349Z,29.52
